createdAt,value
2023-01-08T00:01:16.198Z,97716.34
2023-01-08T00:03:43.258Z,97723.81
2023-01-08T00:06:16.302Z,97728.50
2023-01-08T00:08:43.156Z,97711.22
2023-01-08T00:11:11.030Z,97713.22
2023-01-08T00:13:37.972Z,97721.84
2023-01-08T00:16:10.593Z,97721.03
2023-01-08T00:18:37.646Z,97742.66
2023-01-08T00:21:05.129Z,97748.16
2023-01-08T00:23:32.667Z,97721.06
2023-01-08T00:26:04.015Z,97725.38
2023-01-08T00:28:31.532Z,97717.53
2023-01-08T00:30:58.801Z,97728.53
2023-01-08T00:33:25.625Z,97725.78
2023-01-08T00:35:55.144Z,97757.56
2023-01-08T00:38:26.219Z,97748.56
2023-01-08T00:40:52.955Z,97752.06
2023-01-08T00:43:19.742Z,97749.31
2023-01-08T00:45:46.516Z,97772.91
2023-01-08T00:48:13.253Z,97766.22
2023-01-08T00:50:39.945Z,97756.00
2023-01-08T00:53:06.727Z,97768.56
2023-01-08T00:55:33.443Z,97777.22
2023-01-08T00:58:00.172Z,97761.88
2023-01-08T01:00:26.974Z,97760.34
2023-01-08T01:02:53.788Z,97768.19
2023-01-08T01:05:21.002Z,97770.94
2023-01-08T01:07:47.917Z,97753.28
2023-01-08T01:10:16.545Z,97768.59
2023-01-08T01:12:44.280Z,97760.34
2023-01-08T01:15:14.285Z,97773.28
2023-01-08T01:17:43.358Z,97766.22
2023-01-08T01:20:13.351Z,97772.50
2023-01-08T01:22:40.159Z,97773.28
2023-01-08T01:25:08.179Z,97778.00
2023-01-08T01:27:35.331Z,97754.06
2023-01-08T01:30:02.900Z,97766.63
2023-01-08T01:32:29.766Z,97759.53
2023-01-08T01:34:56.408Z,97768.97
2023-01-08T01:37:23.251Z,97787.03
2023-01-08T01:39:49.988Z,97774.84
2023-01-08T01:42:37.257Z,97767.81
2023-01-08T01:45:25.676Z,97775.63
2023-01-08T01:48:02.553Z,97775.63
2023-01-08T01:50:51.694Z,97778.78
2023-01-08T01:53:32.118Z,97772.09
2023-01-08T01:55:59.621Z,97774.84
2023-01-08T01:58:28.807Z,97787.78
2023-01-08T02:00:57.981Z,97780.72
2023-01-08T02:03:27.803Z,97771.69
2023-01-08T02:06:20.761Z,97788.59
2023-01-08T02:09:06.248Z,97793.28
2023-01-08T02:12:18.830Z,97790.16
2023-01-08T02:15:04.836Z,97793.69
2023-01-08T02:17:46.603Z,97789.75
2023-01-08T02:20:23.278Z,97801.91
2023-01-08T02:23:20.480Z,97795.25
2023-01-08T02:26:08.214Z,97805.47
2023-01-08T02:28:41.291Z,97788.94
2023-01-08T02:31:09.979Z,97782.28
2023-01-08T02:33:36.813Z,97785.78
2023-01-08T02:36:24.672Z,97779.91
2023-01-08T02:39:03.593Z,97774.81
2023-01-08T02:41:53.601Z,97774.81
2023-01-08T02:44:48.902Z,97767.75
2023-01-08T02:47:39.519Z,97763.41
2023-01-08T02:50:24.439Z,97766.56
2023-01-08T02:53:14.382Z,97748.91
2023-01-08T02:55:45.163Z,97748.50
2023-01-08T02:58:13.202Z,97760.66
2023-01-08T03:00:42.729Z,97761.06
2023-01-08T03:03:14.117Z,97759.88
2023-01-08T03:05:43.687Z,97751.22
2023-01-08T03:08:12.427Z,97753.56
2023-01-08T03:10:41.908Z,97750.44
2023-01-08T03:13:15.628Z,97752.00
2023-01-08T03:15:53.921Z,97748.06
2023-01-08T03:18:26.853Z,97742.56
2023-01-08T03:20:54.160Z,97738.63
2023-01-08T03:23:23.023Z,97739.78
2023-01-08T03:25:49.919Z,97733.13
2023-01-08T03:28:25.506Z,97733.94
2023-01-08T03:30:53.579Z,97741.78
2023-01-08T03:33:24.310Z,97742.94
2023-01-08T03:35:54.001Z,97741.78
2023-01-08T03:38:35.812Z,97735.88
2023-01-08T03:41:10.708Z,97738.63
2023-01-08T03:43:38.562Z,97744.91
2023-01-08T03:46:14.119Z,97740.22
2023-01-08T03:48:41.420Z,97755.88
2023-01-08T03:51:09.721Z,97749.22
2023-01-08T03:53:37.125Z,97754.34
2023-01-08T03:56:03.962Z,97755.50
2023-01-08T03:58:30.651Z,97749.22
2023-01-08T04:00:57.453Z,97733.13
2023-01-08T04:03:24.821Z,97724.50
2023-01-08T04:05:51.542Z,97741.75
2023-01-08T04:08:18.244Z,97733.13
2023-01-08T04:10:45.101Z,97725.31
2023-01-08T04:13:11.846Z,97707.25
2023-01-08T04:15:38.533Z,97715.88
2023-01-08T04:18:05.377Z,97712.72
2023-01-08T04:20:32.117Z,97724.47
2023-01-08T04:22:58.851Z,97740.56
2023-01-08T04:25:25.569Z,97709.19
2023-01-08T04:27:52.251Z,97713.47
2023-01-08T04:30:19.015Z,97723.31
2023-01-08T04:32:45.771Z,97729.19
2023-01-08T04:35:12.520Z,97740.94
2023-01-08T04:37:39.257Z,97732.72
2023-01-08T04:40:06.613Z,97726.06
2023-01-08T04:42:33.336Z,97725.25
2023-01-08T04:45:00.093Z,97729.19
2023-01-08T04:47:26.805Z,97723.31
2023-01-08T04:49:53.530Z,97736.25
2023-01-08T04:52:20.215Z,97726.84
2023-01-08T04:54:46.888Z,97735.44
2023-01-08T04:57:13.631Z,97726.44
2023-01-08T04:59:40.343Z,97727.22
2023-01-08T05:02:07.315Z,97720.97
2023-01-08T05:04:34.268Z,97720.56
2023-01-08T05:07:01.017Z,97712.72
2023-01-08T05:09:27.739Z,97708.41
2023-01-08T05:11:54.512Z,97689.59
2023-01-08T05:14:21.337Z,97684.47
2023-01-08T05:16:48.075Z,97676.63
2023-01-08T05:19:14.878Z,97653.50
2023-01-08T05:21:41.805Z,97649.19
2023-01-08T05:24:09.523Z,97659.00
2023-01-08T05:26:36.372Z,97666.44
2023-01-08T05:29:03.306Z,97646.84
2023-01-08T05:31:30.173Z,97669.22
2023-01-08T05:33:59.049Z,97679.78
2023-01-08T05:36:25.869Z,97670.41
2023-01-08T05:38:52.587Z,97667.25
2023-01-08T05:41:19.342Z,97651.94
2023-01-08T05:43:46.084Z,97674.34
2023-01-08T05:46:12.902Z,97684.50
2023-01-08T05:48:39.764Z,97673.53
2023-01-08T05:51:06.440Z,97677.47
2023-01-08T05:53:33.308Z,97679.84
2023-01-08T05:56:09.094Z,97691.59
2023-01-08T05:58:36.467Z,97670.00
2023-01-08T06:01:06.627Z,97675.50
2023-01-08T06:03:33.570Z,97683.75
2023-01-08T06:06:02.509Z,97668.03
2023-01-08T06:08:30.468Z,97650.78
2023-01-08T06:11:05.796Z,97653.09
2023-01-08T06:13:33.482Z,97656.66
2023-01-08T06:16:01.068Z,97645.25
2023-01-08T06:18:28.839Z,97633.50
2023-01-08T06:20:55.641Z,97644.09
2023-01-08T06:23:22.396Z,97640.56
2023-01-08T06:25:54.005Z,97636.63
2023-01-08T06:28:21.080Z,97648.00
2023-01-08T06:30:47.901Z,97645.25
2023-01-08T06:33:15.143Z,97653.88
2023-01-08T06:35:42.942Z,97639.78
2023-01-08T06:38:09.743Z,97632.69
2023-01-08T06:40:36.694Z,97614.63
2023-01-08T06:43:05.569Z,97626.03
2023-01-08T06:45:33.351Z,97627.59
2023-01-08T06:48:07.602Z,97629.53
2023-01-08T06:50:35.160Z,97629.53
2023-01-08T06:53:01.903Z,97637.41
2023-01-08T06:55:28.622Z,97625.63
2023-01-08T06:57:56.187Z,97626.03
2023-01-08T07:00:23.947Z,97624.44
2023-01-08T07:02:54.560Z,97633.47
2023-01-08T07:05:22.275Z,97636.22
2023-01-08T07:07:49.256Z,97631.09
2023-01-08T07:10:17.445Z,97642.06
2023-01-08T07:12:45.285Z,97643.63
2023-01-08T07:15:12.216Z,97635.00
2023-01-08T07:17:39.030Z,97627.94
2023-01-08T07:20:06.579Z,97633.44
2023-01-08T07:22:33.364Z,97625.19
2023-01-08T07:25:00.136Z,97631.84
2023-01-08T07:27:26.919Z,97624.38
2023-01-08T07:29:56.025Z,97629.47
2023-01-08T07:32:22.983Z,97627.53
2023-01-08T07:34:49.913Z,97633.41
2023-01-08T07:37:16.673Z,97634.22
2023-01-08T07:39:43.444Z,97627.94
2023-01-08T07:42:10.239Z,97615.78
2023-01-08T07:44:37.004Z,97621.63
2023-01-08T07:47:03.772Z,97616.94
2023-01-08T07:49:30.530Z,97606.72
2023-01-08T07:51:57.234Z,97616.16
2023-01-08T07:54:23.930Z,97604.75
2023-01-08T07:56:50.660Z,97596.13
2023-01-08T07:59:17.429Z,97591.41
2023-01-08T08:01:44.332Z,97585.53
2023-01-08T08:04:11.158Z,97584.00
2023-01-08T08:06:37.864Z,97576.91
2023-01-08T08:09:04.886Z,97580.03
2023-01-08T08:11:31.952Z,97574.94
2023-01-08T08:13:58.735Z,97573.38
2023-01-08T08:16:25.534Z,97576.09
2023-01-08T08:18:52.362Z,97573.38
2023-01-08T08:21:19.165Z,97574.56
2023-01-08T08:23:45.938Z,97575.34
2023-01-08T08:26:13.144Z,97578.47
2023-01-08T08:28:39.869Z,97583.16
2023-01-08T08:31:06.674Z,97592.59
2023-01-08T08:33:33.463Z,97587.09
2023-01-08T08:36:00.316Z,97580.81
2023-01-08T08:38:27.209Z,97581.97
2023-01-08T08:40:53.953Z,97582.38
2023-01-08T08:43:20.689Z,97572.56
2023-01-08T08:45:47.379Z,97577.25
2023-01-08T08:48:14.103Z,97574.53
2023-01-08T08:53:09.964Z,97565.50
2023-01-08T08:55:36.735Z,97572.59
2023-01-08T08:58:11.447Z,97565.91
2023-01-08T09:00:39.609Z,97563.53
2023-01-08T09:03:07.142Z,97556.50
2023-01-08T09:05:37.308Z,97557.66
2023-01-08T09:08:04.060Z,97562.38
2023-01-08T09:10:30.799Z,97574.13
2023-01-08T09:12:57.586Z,97563.53
2023-01-08T09:15:24.287Z,97565.88
2023-01-08T09:17:56.445Z,97569.41
2023-01-08T09:20:24.470Z,97571.00
2023-01-08T09:22:51.268Z,97571.34
2023-01-08T09:25:18.176Z,97570.56
2023-01-08T09:27:45.092Z,97576.06
2023-01-08T09:30:12.699Z,97572.13
2023-01-08T09:32:40.390Z,97570.19
2023-01-08T09:35:07.429Z,97553.72
2023-01-08T09:37:34.075Z,97568.22
2023-01-08T09:40:02.944Z,97563.50
2023-01-08T09:42:31.070Z,97555.25
2023-01-08T09:45:00.329Z,97552.13
2023-01-08T09:47:39.031Z,97554.09
2023-01-08T09:50:13.199Z,97549.75
2023-01-08T09:52:42.171Z,97560.34
2023-01-08T09:55:14.938Z,97556.81
2023-01-08T09:57:43.102Z,97553.28
2023-01-08T10:00:15.729Z,97545.44
2023-01-08T10:02:43.703Z,97551.31
2023-01-08T10:05:18.323Z,97559.53
2023-01-08T10:07:46.211Z,97550.13
2023-01-08T10:10:22.438Z,97552.88
2023-01-08T10:12:50.755Z,97555.63
2023-01-08T10:15:19.465Z,97544.66
2023-01-08T10:17:48.918Z,97558.34
2023-01-08T10:20:21.711Z,97540.75
2023-01-08T10:22:49.126Z,97553.69
2023-01-08T10:25:24.595Z,97542.72
2023-01-08T10:27:57.839Z,97539.22
2023-01-08T10:30:31.777Z,97542.75
2023-01-08T10:33:26.293Z,97538.44
2023-01-08T10:35:58.023Z,97540.78
2023-01-08T10:38:37.045Z,97541.97
2023-01-08T10:41:06.953Z,97547.47
2023-01-08T10:43:51.913Z,97534.53
2023-01-08T10:46:26.997Z,97530.59
2023-01-08T10:49:06.556Z,97534.13
2023-01-08T10:51:33.772Z,97540.78
2023-01-08T10:54:23.430Z,97543.16
2023-01-08T10:56:50.116Z,97538.06
2023-01-08T10:59:21.418Z,97544.72
2023-01-08T11:01:50.080Z,97542.38
2023-01-08T11:04:37.121Z,97535.31
2023-01-08T11:07:07.481Z,97533.75
2023-01-08T11:09:41.442Z,97543.97
2023-01-08T11:12:35.860Z,97539.66
2023-01-08T11:15:07.202Z,97546.31
2023-01-08T11:17:34.851Z,97544.00
2023-01-08T11:20:31.083Z,97538.50
2023-01-08T11:23:13.260Z,97551.81
2023-01-08T11:25:43.112Z,97535.75
2023-01-08T11:28:14.631Z,97541.66
2023-01-08T11:30:47.464Z,97542.44
2023-01-08T11:33:21.546Z,97542.88
2023-01-08T11:36:00.710Z,97531.50
2023-01-08T11:38:27.385Z,97535.03
2023-01-08T11:41:46.163Z,97533.06
2023-01-08T11:44:21.933Z,97526.78
2023-01-08T11:47:05.572Z,97527.56
2023-01-08T11:49:58.026Z,97520.50
2023-01-08T11:52:38.976Z,97514.22
2023-01-08T11:55:29.971Z,97506.78
2023-01-08T11:58:25.788Z,97512.28
2023-01-08T12:01:15.596Z,97524.03
2023-01-08T12:03:49.679Z,97517.38
2023-01-08T12:06:53.363Z,97518.91
2023-01-08T12:09:43.148Z,97520.50
2023-01-08T12:12:43.977Z,97523.25
2023-01-08T12:15:26.576Z,97516.19
2023-01-08T12:17:53.199Z,97509.53
2023-01-08T12:20:38.342Z,97498.53
2023-01-08T12:23:37.311Z,97490.72
2023-01-08T12:26:40.499Z,97496.97
2023-01-08T12:29:33.188Z,97492.25
2023-01-08T12:32:10.510Z,97493.47
2023-01-08T12:35:00.446Z,97486.38
2023-01-08T12:37:39.309Z,97490.72
2023-01-08T12:40:18.268Z,97487.56
2023-01-08T12:42:47.416Z,97490.72
2023-01-08T12:45:28.499Z,97485.59
2023-01-08T12:48:04.241Z,97479.72
2023-01-08T12:50:48.136Z,97479.72
2023-01-08T12:53:23.531Z,97491.09
2023-01-08T12:56:11.526Z,97478.53
2023-01-08T12:59:04.927Z,97480.50
2023-01-08T13:01:51.167Z,97486.75
2023-01-08T13:04:18.963Z,97486.75
2023-01-08T13:07:03.309Z,97481.25
2023-01-08T13:09:31.989Z,97490.69
2023-01-08T13:12:00.743Z,97469.88
2023-01-08T13:14:28.021Z,97464.75
2023-01-08T13:17:07.954Z,97465.53
2023-01-08T13:19:51.051Z,97464.72
2023-01-08T13:22:28.490Z,97448.25
2023-01-08T13:25:20.110Z,97455.28
2023-01-08T13:27:47.662Z,97457.66
2023-01-08T13:30:39.208Z,97447.00
2023-01-08T13:33:27.550Z,97461.09
2023-01-08T13:36:12.909Z,97455.16
2023-01-08T13:38:40.507Z,97457.06
2023-01-08T13:41:29.344Z,97452.69
2023-01-08T13:44:16.312Z,97453.03
2023-01-08T13:46:44.259Z,97456.53
2023-01-08T13:49:26.273Z,97450.97
2023-01-08T13:51:53.071Z,97454.06
2023-01-08T13:54:25.419Z,97448.47
2023-01-08T13:56:54.204Z,97438.22
2023-01-08T13:59:29.942Z,97446.09
2023-01-08T14:01:57.786Z,97452.78
2023-01-08T14:04:24.876Z,97441.38
2023-01-08T14:06:51.576Z,97436.25
2023-01-08T14:09:25.995Z,97439.81
2023-01-08T14:11:57.578Z,97431.63
2023-01-08T14:14:24.839Z,97435.97
2023-01-08T14:16:53.136Z,97439.53
2023-01-08T14:19:22.541Z,97430.50
2023-01-08T14:22:04.026Z,97426.56
2023-01-08T14:24:30.771Z,97430.88
2023-01-08T14:26:59.755Z,97419.09
2023-01-08T14:29:30.033Z,97432.81
2023-01-08T14:32:00.313Z,97428.44
2023-01-08T14:34:29.976Z,97423.66
2023-01-08T14:36:57.096Z,97429.53
2023-01-08T14:39:24.075Z,97430.69
2023-01-08T14:42:12.647Z,97434.59
2023-01-08T14:44:42.446Z,97440.91
2023-01-08T14:47:18.634Z,97438.19
2023-01-08T14:49:53.169Z,97453.13
2023-01-08T14:52:21.307Z,97447.66
2023-01-08T14:54:53.346Z,97447.28
2023-01-08T14:57:22.924Z,97448.09
2023-01-08T15:00:02.279Z,97456.38
2023-01-08T15:02:33.785Z,97448.56
2023-01-08T15:05:03.842Z,97462.34
2023-01-08T15:07:30.485Z,97455.25
2023-01-08T15:09:59.458Z,97466.69
2023-01-08T15:12:28.478Z,97483.97
2023-01-08T15:14:57.731Z,97476.94
2023-01-08T15:17:28.741Z,97476.97
2023-01-08T15:19:57.506Z,97475.00
2023-01-08T15:22:32.848Z,97473.84
2023-01-08T15:25:02.808Z,97477.00
2023-01-08T15:27:37.006Z,97483.28
2023-01-08T15:30:05.716Z,97462.09
2023-01-08T15:32:37.488Z,97478.59
2023-01-08T15:35:16.846Z,97484.16
2023-01-08T15:37:43.550Z,97481.81
2023-01-08T15:40:12.468Z,97484.19
2023-01-08T15:42:58.443Z,97497.56
2023-01-08T15:45:29.800Z,97495.22
2023-01-08T15:47:56.586Z,97491.31
2023-01-08T15:50:25.250Z,97489.00
2023-01-08T15:52:51.949Z,97481.16
2023-01-08T15:55:23.113Z,97485.50
2023-01-08T15:57:50.220Z,97486.31
2023-01-08T16:00:18.891Z,97471.00
2023-01-08T16:02:47.980Z,97490.25
2023-01-08T16:05:17.620Z,97497.69
2023-01-08T16:07:47.587Z,97498.09
2023-01-08T16:10:15.922Z,97507.16
2023-01-08T16:12:43.669Z,97507.16
2023-01-08T16:15:12.495Z,97511.09
2023-01-08T16:17:39.420Z,97511.47
2023-01-08T16:20:08.051Z,97522.09
2023-01-08T16:22:34.933Z,97523.66
2023-01-08T16:25:01.981Z,97521.69
2023-01-08T16:27:30.832Z,97525.22
2023-01-08T16:29:58.445Z,97519.34
2023-01-08T16:32:25.256Z,97517.78
2023-01-08T16:34:52.045Z,97528.31
2023-01-08T16:37:18.829Z,97522.06
2023-01-08T16:39:45.569Z,97527.53
2023-01-08T16:42:12.443Z,97525.97
2023-01-08T16:44:39.197Z,97529.88
2023-01-08T16:47:05.828Z,97525.16
2023-01-08T16:49:33.647Z,97529.50
2023-01-08T16:52:00.611Z,97542.06
2023-01-08T16:54:27.892Z,97538.50
2023-01-08T16:56:54.885Z,97547.53
2023-01-08T16:59:24.012Z,97552.25
2023-01-08T17:01:51.979Z,97556.53
2023-01-08T17:04:20.447Z,97556.53
2023-01-08T17:06:47.232Z,97545.94
2023-01-08T17:09:15.102Z,97551.84
2023-01-08T17:11:42.568Z,97547.91
2023-01-08T17:14:09.933Z,97551.84
2023-01-08T17:16:36.774Z,97551.03
2023-01-08T17:19:03.846Z,97559.66
2023-01-08T17:21:30.511Z,97549.47
2023-01-08T17:23:57.144Z,97562.78
2023-01-08T17:26:24.170Z,97555.34
2023-01-08T17:28:54.586Z,97566.69
2023-01-08T17:31:21.348Z,97570.59
2023-01-08T17:33:50.407Z,97576.88
2023-01-08T17:36:23.022Z,97567.47
2023-01-08T17:38:50.794Z,97570.56
2023-01-08T17:41:37.142Z,97573.72
2023-01-08T17:44:06.947Z,97575.66
2023-01-08T17:46:42.531Z,97578.00
2023-01-08T17:49:11.396Z,97577.63
2023-01-08T17:51:40.891Z,97581.53
2023-01-08T17:54:17.217Z,97583.88
2023-01-08T17:56:44.067Z,97594.84
2023-01-08T17:59:15.845Z,97608.16
2023-01-08T18:01:42.794Z,97606.59
2023-01-08T18:04:09.511Z,97606.19
2023-01-08T18:06:36.274Z,97619.13
2023-01-08T18:09:03.609Z,97616.78
2023-01-08T18:11:30.790Z,97603.06
2023-01-08T18:13:59.505Z,97620.66
2023-01-08T18:16:26.991Z,97621.84
2023-01-08T18:18:55.543Z,97636.34
2023-01-08T18:21:22.256Z,97628.50
2023-01-08T18:23:48.928Z,97631.25
2023-01-08T18:26:17.355Z,97621.44
2023-01-08T18:28:44.394Z,97634.75
2023-01-08T18:31:12.458Z,97632.81
2023-01-08T18:33:41.988Z,97634.00
2023-01-08T18:36:11.553Z,97645.72
2023-01-08T18:38:43.326Z,97641.03
2023-01-08T18:41:12.562Z,97653.56
2023-01-08T18:43:39.195Z,97652.78
2023-01-08T18:46:09.911Z,97648.88
2023-01-08T18:48:37.809Z,97660.66
2023-01-08T18:51:05.856Z,97661.81
2023-01-08T18:53:33.829Z,97658.66
2023-01-08T18:56:01.896Z,97660.66
2023-01-08T18:58:29.597Z,97662.19
2023-01-08T19:01:01.810Z,97663.38
2023-01-08T19:03:28.543Z,97669.63
2023-01-08T19:05:55.216Z,97669.28
2023-01-08T19:08:21.850Z,97674.34
2023-01-08T19:10:50.216Z,97680.63
2023-01-08T19:13:17.028Z,97686.50
2023-01-08T19:15:43.679Z,97694.75
2023-01-08T19:18:10.499Z,97689.25
2023-01-08T19:20:46.224Z,97710.03
2023-01-08T19:23:13.845Z,97718.25
2023-01-08T19:25:40.769Z,97712.00
2023-01-08T19:28:07.431Z,97712.78
2023-01-08T19:30:34.422Z,97710.03
2023-01-08T19:33:01.590Z,97724.13
2023-01-08T19:35:28.675Z,97735.09
2023-01-08T19:37:55.358Z,97742.56
2023-01-08T19:40:22.968Z,97738.22
2023-01-08T19:43:08.393Z,97737.03
2023-01-08T19:45:38.123Z,97753.09
2023-01-08T19:48:05.557Z,97746.41
2023-01-08T19:50:34.112Z,97746.78
2023-01-08T19:53:00.800Z,97752.66
2023-01-08T19:55:29.368Z,97759.31
2023-01-08T19:57:56.011Z,97751.84
2023-01-08T20:00:22.912Z,97768.28
2023-01-08T20:02:51.515Z,97769.47
2023-01-08T20:05:19.399Z,97779.66
2023-01-08T20:07:46.350Z,97783.19
2023-01-08T20:10:13.632Z,97784.72
2023-01-08T20:12:40.440Z,97791.41
2023-01-08T20:15:07.620Z,97787.50
2023-01-08T20:17:34.415Z,97791.84
2023-01-08T20:20:01.183Z,97792.59
2023-01-08T20:22:29.117Z,97796.94
2023-01-08T20:24:57.681Z,97796.94
2023-01-08T20:27:25.178Z,97803.22
2023-01-08T20:29:51.943Z,97808.28
2023-01-08T20:32:21.017Z,97805.16
2023-01-08T20:34:49.371Z,97811.03
2023-01-08T20:37:16.025Z,97820.81
2023-01-08T20:39:42.782Z,97822.75
2023-01-08T20:42:10.073Z,97824.34
2023-01-08T20:44:36.924Z,97831.44
2023-01-08T20:47:03.756Z,97829.84
2023-01-08T20:49:31.019Z,97830.63
2023-01-08T20:52:00.120Z,97846.28
2023-01-08T20:54:28.928Z,97841.56
2023-01-08T20:56:57.316Z,97850.56
2023-01-08T20:59:25.690Z,97841.56
2023-01-08T21:01:52.852Z,97852.53
2023-01-08T21:04:20.519Z,97855.28
2023-01-08T21:06:47.384Z,97856.47
2023-01-08T21:09:16.654Z,97852.53
2023-01-08T21:11:43.715Z,97867.41
2023-01-08T21:14:11.096Z,97868.19
2023-01-08T21:16:40.453Z,97883.03
2023-01-08T21:19:10.443Z,97875.19
2023-01-08T21:21:40.141Z,97893.19
2023-01-08T21:24:09.592Z,97894.75
2023-01-08T21:26:37.939Z,97901.75
2023-01-08T21:29:09.224Z,97890.75
2023-01-08T21:31:37.209Z,97903.28
2023-01-08T21:34:05.417Z,97899.31
2023-01-08T21:36:32.628Z,97906.34
2023-01-08T21:39:01.141Z,97904.78
2023-01-08T21:41:47.968Z,97904.34
2023-01-08T21:44:35.876Z,97916.47
2023-01-08T21:47:04.831Z,97918.81
2023-01-08T21:49:31.970Z,97915.28
2023-01-08T21:52:17.878Z,97912.13
2023-01-08T21:54:44.529Z,97924.25
2023-01-08T21:57:11.645Z,97916.41
2023-01-08T21:59:38.306Z,97922.63
2023-01-08T22:02:06.236Z,97929.28
2023-01-08T22:04:33.135Z,97930.84
2023-01-08T22:06:59.776Z,97932.00
2023-01-08T22:09:26.487Z,97933.19
2023-01-08T22:11:54.996Z,97928.88
2023-01-08T22:14:21.933Z,97936.69
2023-01-08T22:16:48.630Z,97934.28
2023-01-08T22:19:15.361Z,97940.56
2023-01-08T22:21:42.070Z,97935.88
2023-01-08T22:24:08.769Z,97940.56
2023-01-08T22:26:35.722Z,97949.97
2023-01-08T22:29:04.249Z,97940.97
2023-01-08T22:31:30.959Z,97948.38
2023-01-08T22:34:00.046Z,97949.19
2023-01-08T22:36:26.889Z,97956.22
2023-01-08T22:38:53.539Z,97947.22
2023-01-08T22:41:23.030Z,97940.56
2023-01-08T22:43:55.918Z,97942.16
2023-01-08T22:46:23.248Z,97942.16
2023-01-08T22:48:49.956Z,97957.00
2023-01-08T22:51:16.939Z,97941.38
2023-01-08T22:53:43.584Z,97954.72
2023-01-08T22:56:13.381Z,97948.44
2023-01-08T22:58:41.276Z,97953.13
2023-01-08T23:01:23.452Z,97940.56
2023-01-08T23:03:57.480Z,97953.84
2023-01-08T23:06:26.627Z,97957.75
2023-01-08T23:08:53.979Z,97959.72
2023-01-08T23:11:22.421Z,97958.13
2023-01-08T23:13:50.649Z,97962.03
2023-01-08T23:16:19.899Z,97957.72
2023-01-08T23:18:46.649Z,97978.06
2023-01-08T23:21:17.434Z,97975.69
2023-01-08T23:23:44.676Z,97974.91
2023-01-08T23:26:18.955Z,97978.81
2023-01-08T23:28:47.053Z,97972.91
2023-01-08T23:31:17.098Z,97979.97
2023-01-08T23:33:43.947Z,97990.13
2023-01-08T23:36:10.975Z,97974.84
2023-01-08T23:38:37.718Z,97981.50
2023-01-08T23:41:07.243Z,97974.06
2023-01-08T23:43:34.208Z,97979.19
2023-01-08T23:46:05.492Z,97974.84
2023-01-08T23:48:32.254Z,97983.47
2023-01-08T23:50:59.246Z,97988.97
2023-01-08T23:53:26.149Z,97991.69
2023-01-08T23:55:52.968Z,97993.28
2023-01-08T23:58:20.017Z,97994.44
